sensor_id;sensor_type;location;lat;lon;timestamp;temperature;humidity
41447;DHT22;27185;52.040;4.490;2022-11-20T00:02:08;-0.10;99.90
41447;DHT22;27185;52.040;4.490;2022-11-20T00:04:53;-0.10;99.90
41447;DHT22;27185;52.040;4.490;2022-11-20T00:07:39;-0.20;99.90
41447;DHT22;27185;52.040;4.490;2022-11-20T00:10:25;-0.20;99.90
41447;DHT22;27185;52.040;4.490;2022-11-20T00:13:10;-0.20;99.90
41447;DHT22;27185;52.040;4.490;2022-11-20T00:15:57;-0.30;99.90
41447;DHT22;27185;52.040;4.490;2022-11-20T00:18:44;-0.30;99.90
41447;DHT22;27185;52.040;4.490;2022-11-20T00:21:30;-0.30;99.90
41447;DHT22;27185;52.040;4.490;2022-11-20T00:24:16;-0.30;99.90
41447;DHT22;27185;52.040;4.490;2022-11-20T00:27:01;-0.40;99.90
41447;DHT22;27185;52.040;4.490;2022-11-20T00:29:47;-0.40;99.90
41447;DHT22;27185;52.040;4.490;2022-11-20T00:32:33;-0.40;99.90
41447;DHT22;27185;52.040;4.490;2022-11-20T00:35:19;-0.40;99.90
41447;DHT22;27185;52.040;4.490;2022-11-20T00:38:05;-0.50;99.90
41447;DHT22;27185;52.040;4.490;2022-11-20T00:40:56;-0.50;99.90
41447;DHT22;27185;52.040;4.490;2022-11-20T00:43:42;-0.50;99.90
41447;DHT22;27185;52.040;4.490;2022-11-20T00:46:28;-0.50;99.90
41447;DHT22;27185;52.040;4.490;2022-11-20T00:49:14;-0.50;99.90
41447;DHT22;27185;52.040;4.490;2022-11-20T00:52:01;-0.50;99.90
41447;DHT22;27185;52.040;4.490;2022-11-20T00:54:46;-0.50;99.90
41447;DHT22;27185;52.040;4.490;2022-11-20T00:57:32;-0.50;99.90
41447;DHT22;27185;52.040;4.490;2022-11-20T01:00:18;-0.50;99.90
41447;DHT22;27185;52.040;4.490;2022-11-20T01:03:03;-0.50;99.90
41447;DHT22;27185;52.040;4.490;2022-11-20T01:05:49;-0.50;99.90
41447;DHT22;27185;52.040;4.490;2022-11-20T01:08:36;-0.50;99.90
41447;DHT22;27185;52.040;4.490;2022-11-20T01:11:27;-0.60;99.90
41447;DHT22;27185;52.040;4.490;2022-11-20T01:14:16;-0.60;99.90
41447;DHT22;27185;52.040;4.490;2022-11-20T01:17:02;-0.70;99.90
41447;DHT22;27185;52.040;4.490;2022-11-20T01:19:51;-0.70;99.90
41447;DHT22;27185;52.040;4.490;2022-11-20T01:22:36;-0.70;99.90
41447;DHT22;27185;52.040;4.490;2022-11-20T01:25:22;-0.70;99.90
41447;DHT22;27185;52.040;4.490;2022-11-20T01:28:07;-0.80;99.90
41447;DHT22;27185;52.040;4.490;2022-11-20T01:30:53;-0.80;99.90
41447;DHT22;27185;52.040;4.490;2022-11-20T01:33:39;-0.80;99.90
41447;DHT22;27185;52.040;4.490;2022-11-20T01:36:28;-0.90;99.90
41447;DHT22;27185;52.040;4.490;2022-11-20T01:39:15;-0.90;99.90
41447;DHT22;27185;52.040;4.490;2022-11-20T01:42:01;-0.90;99.90
41447;DHT22;27185;52.040;4.490;2022-11-20T01:48:38;-1.00;99.90
41447;DHT22;27185;52.040;4.490;2022-11-20T01:54:20;-1.00;99.90
41447;DHT22;27185;52.040;4.490;2022-11-20T01:57:09;-1.10;99.90
41447;DHT22;27185;52.040;4.490;2022-11-20T02:00:04;-1.00;99.90
41447;DHT22;27185;52.040;4.490;2022-11-20T02:02:54;-1.00;99.90
41447;DHT22;27185;52.040;4.490;2022-11-20T02:08:33;-1.10;99.90
41447;DHT22;27185;52.040;4.490;2022-11-20T02:11:19;-1.10;99.90
41447;DHT22;27185;52.040;4.490;2022-11-20T02:14:04;-1.10;99.90
41447;DHT22;27185;52.040;4.490;2022-11-20T02:16:51;-1.10;99.90
41447;DHT22;27185;52.040;4.490;2022-11-20T02:19:37;-1.10;99.90
41447;DHT22;27185;52.040;4.490;2022-11-20T02:22:28;-1.10;99.90
41447;DHT22;27185;52.040;4.490;2022-11-20T02:25:15;-1.10;99.90
41447;DHT22;27185;52.040;4.490;2022-11-20T02:28:02;-1.10;99.90
41447;DHT22;27185;52.040;4.490;2022-11-20T02:30:48;-1.10;99.90
41447;DHT22;27185;52.040;4.490;2022-11-20T02:33:33;-1.10;99.90
41447;DHT22;27185;52.040;4.490;2022-11-20T02:36:19;-1.20;99.90
41447;DHT22;27185;52.040;4.490;2022-11-20T02:39:05;-1.20;99.90
41447;DHT22;27185;52.040;4.490;2022-11-20T02:41:53;-1.20;99.90
41447;DHT22;27185;52.040;4.490;2022-11-20T02:44:39;-1.20;99.90
41447;DHT22;27185;52.040;4.490;2022-11-20T02:47:24;-1.10;99.90
41447;DHT22;27185;52.040;4.490;2022-11-20T02:50:10;-1.10;99.90
41447;DHT22;27185;52.040;4.490;2022-11-20T02:52:56;-1.10;99.90
41447;DHT22;27185;52.040;4.490;2022-11-20T02:55:41;-1.10;99.90
41447;DHT22;27185;52.040;4.490;2022-11-20T02:58:27;-1.10;99.90
41447;DHT22;27185;52.040;4.490;2022-11-20T03:01:12;-1.10;99.90
41447;DHT22;27185;52.040;4.490;2022-11-20T03:03:58;-1.00;99.90
41447;DHT22;27185;52.040;4.490;2022-11-20T03:06:44;-1.10;99.90
41447;DHT22;27185;52.040;4.490;2022-11-20T03:09:29;-1.00;99.90
41447;DHT22;27185;52.040;4.490;2022-11-20T03:12:16;-1.00;99.90
41447;DHT22;27185;52.040;4.490;2022-11-20T03:15:01;-1.10;99.90
41447;DHT22;27185;52.040;4.490;2022-11-20T03:17:47;-1.00;99.90
41447;DHT22;27185;52.040;4.490;2022-11-20T03:20:33;-1.00;99.90
41447;DHT22;27185;52.040;4.490;2022-11-20T03:23:19;-1.00;99.90
41447;DHT22;27185;52.040;4.490;2022-11-20T03:26:20;-1.00;99.90
41447;DHT22;27185;52.040;4.490;2022-11-20T03:29:06;-1.00;99.90
41447;DHT22;27185;52.040;4.490;2022-11-20T03:31:52;-1.10;99.90
41447;DHT22;27185;52.040;4.490;2022-11-20T03:34:38;-1.10;99.90
41447;DHT22;27185;52.040;4.490;2022-11-20T03:37:24;-1.10;99.90
41447;DHT22;27185;52.040;4.490;2022-11-20T03:40:10;-1.10;99.90
41447;DHT22;27185;52.040;4.490;2022-11-20T03:42:56;-1.10;99.90
41447;DHT22;27185;52.040;4.490;2022-11-20T03:45:41;-1.10;99.90
41447;DHT22;27185;52.040;4.490;2022-11-20T03:48:27;-1.10;99.90
41447;DHT22;27185;52.040;4.490;2022-11-20T03:54:05;-1.20;99.90
41447;DHT22;27185;52.040;4.490;2022-11-20T03:56:51;-1.20;99.90
41447;DHT22;27185;52.040;4.490;2022-11-20T03:59:37;-1.20;99.90
41447;DHT22;27185;52.040;4.490;2022-11-20T04:02:23;-1.30;99.90
41447;DHT22;27185;52.040;4.490;2022-11-20T04:05:08;-1.30;99.90
41447;DHT22;27185;52.040;4.490;2022-11-20T04:07:54;-1.30;99.90
41447;DHT22;27185;52.040;4.490;2022-11-20T04:10:40;-1.30;99.90
41447;DHT22;27185;52.040;4.490;2022-11-20T04:13:25;-1.30;99.90
41447;DHT22;27185;52.040;4.490;2022-11-20T04:16:12;-1.30;99.90
41447;DHT22;27185;52.040;4.490;2022-11-20T04:18:59;-1.30;99.90
41447;DHT22;27185;52.040;4.490;2022-11-20T04:21:45;-1.30;99.90
41447;DHT22;27185;52.040;4.490;2022-11-20T04:24:31;-1.30;99.90
41447;DHT22;27185;52.040;4.490;2022-11-20T04:27:16;-1.30;99.90
41447;DHT22;27185;52.040;4.490;2022-11-20T04:30:02;-1.30;99.90
41447;DHT22;27185;52.040;4.490;2022-11-20T04:32:48;-1.30;99.90
41447;DHT22;27185;52.040;4.490;2022-11-20T04:35:35;-1.30;99.90
41447;DHT22;27185;52.040;4.490;2022-11-20T04:38:20;-1.30;99.90
41447;DHT22;27185;52.040;4.490;2022-11-20T04:41:15;-1.30;99.90
41447;DHT22;27185;52.040;4.490;2022-11-20T04:44:03;-1.30;99.90
41447;DHT22;27185;52.040;4.490;2022-11-20T04:46:49;-1.30;99.90
41447;DHT22;27185;52.040;4.490;2022-11-20T04:49:38;-1.40;99.90
41447;DHT22;27185;52.040;4.490;2022-11-20T04:52:24;-1.40;99.90
41447;DHT22;27185;52.040;4.490;2022-11-20T04:55:10;-1.40;99.90
41447;DHT22;27185;52.040;4.490;2022-11-20T04:57:55;-1.40;99.90
41447;DHT22;27185;52.040;4.490;2022-11-20T05:00:41;-1.40;99.90
41447;DHT22;27185;52.040;4.490;2022-11-20T05:03:28;-1.50;99.90
41447;DHT22;27185;52.040;4.490;2022-11-20T05:06:16;-1.50;99.90
41447;DHT22;27185;52.040;4.490;2022-11-20T05:09:04;-1.50;99.90
41447;DHT22;27185;52.040;4.490;2022-11-20T05:11:50;-1.50;99.90
41447;DHT22;27185;52.040;4.490;2022-11-20T05:14:37;-1.50;99.90
41447;DHT22;27185;52.040;4.490;2022-11-20T05:17:23;-1.50;99.90
41447;DHT22;27185;52.040;4.490;2022-11-20T05:20:09;-1.50;99.90
41447;DHT22;27185;52.040;4.490;2022-11-20T05:22:58;-1.50;99.90
41447;DHT22;27185;52.040;4.490;2022-11-20T05:25:43;-1.50;99.90
41447;DHT22;27185;52.040;4.490;2022-11-20T05:28:30;-1.60;99.90
41447;DHT22;27185;52.040;4.490;2022-11-20T05:31:21;-1.60;99.90
41447;DHT22;27185;52.040;4.490;2022-11-20T05:34:07;-1.60;99.90
41447;DHT22;27185;52.040;4.490;2022-11-20T05:36:53;-1.60;99.90
41447;DHT22;27185;52.040;4.490;2022-11-20T05:39:38;-1.60;99.90
41447;DHT22;27185;52.040;4.490;2022-11-20T05:42:24;-1.50;99.90
41447;DHT22;27185;52.040;4.490;2022-11-20T05:45:15;-1.50;99.90
41447;DHT22;27185;52.040;4.490;2022-11-20T05:48:01;-1.50;99.90
41447;DHT22;27185;52.040;4.490;2022-11-20T05:50:47;-1.50;99.90
41447;DHT22;27185;52.040;4.490;2022-11-20T05:53:34;-1.50;99.90
41447;DHT22;27185;52.040;4.490;2022-11-20T05:56:21;-1.50;99.90
41447;DHT22;27185;52.040;4.490;2022-11-20T05:59:07;-1.40;99.90
41447;DHT22;27185;52.040;4.490;2022-11-20T06:01:52;-1.40;99.90
41447;DHT22;27185;52.040;4.490;2022-11-20T06:04:38;-1.40;99.90
41447;DHT22;27185;52.040;4.490;2022-11-20T06:07:23;-1.30;99.90
41447;DHT22;27185;52.040;4.490;2022-11-20T06:10:09;-1.20;99.90
41447;DHT22;27185;52.040;4.490;2022-11-20T06:12:57;-1.20;99.90
41447;DHT22;27185;52.040;4.490;2022-11-20T06:15:49;-1.10;99.90
41447;DHT22;27185;52.040;4.490;2022-11-20T06:18:35;-1.10;99.90
41447;DHT22;27185;52.040;4.490;2022-11-20T06:21:23;-1.00;99.90
41447;DHT22;27185;52.040;4.490;2022-11-20T06:24:09;-1.00;99.90
41447;DHT22;27185;52.040;4.490;2022-11-20T06:26:55;-0.90;99.90
41447;DHT22;27185;52.040;4.490;2022-11-20T06:29:41;-0.90;99.90
41447;DHT22;27185;52.040;4.490;2022-11-20T06:32:26;-0.90;99.90
41447;DHT22;27185;52.040;4.490;2022-11-20T06:35:12;-0.80;99.90
41447;DHT22;27185;52.040;4.490;2022-11-20T06:37:57;-0.80;99.90
41447;DHT22;27185;52.040;4.490;2022-11-20T06:40:43;-0.80;99.90
41447;DHT22;27185;52.040;4.490;2022-11-20T06:43:29;-0.70;99.90
41447;DHT22;27185;52.040;4.490;2022-11-20T06:46:16;-0.70;99.90
41447;DHT22;27185;52.040;4.490;2022-11-20T06:49:02;-0.60;99.90
41447;DHT22;27185;52.040;4.490;2022-11-20T06:51:48;-0.60;99.90
41447;DHT22;27185;52.040;4.490;2022-11-20T06:54:33;-0.50;99.90
41447;DHT22;27185;52.040;4.490;2022-11-20T06:57:19;-0.50;99.90
41447;DHT22;27185;52.040;4.490;2022-11-20T07:00:05;-0.40;99.90
41447;DHT22;27185;52.040;4.490;2022-11-20T07:02:51;-0.40;99.90
41447;DHT22;27185;52.040;4.490;2022-11-20T07:05:37;-0.30;99.90
41447;DHT22;27185;52.040;4.490;2022-11-20T07:08:24;-0.20;99.90
41447;DHT22;27185;52.040;4.490;2022-11-20T07:11:11;-0.20;99.90
41447;DHT22;27185;52.040;4.490;2022-11-20T07:13:57;-0.10;99.90
41447;DHT22;27185;52.040;4.490;2022-11-20T07:16:43;0.00;99.90
41447;DHT22;27185;52.040;4.490;2022-11-20T07:19:28;0.00;99.90
41447;DHT22;27185;52.040;4.490;2022-11-20T07:22:14;0.10;99.90
41447;DHT22;27185;52.040;4.490;2022-11-20T07:24:59;0.20;99.90
41447;DHT22;27185;52.040;4.490;2022-11-20T07:27:45;0.20;99.90
41447;DHT22;27185;52.040;4.490;2022-11-20T07:30:30;0.30;99.90
41447;DHT22;27185;52.040;4.490;2022-11-20T07:33:16;0.40;99.90
41447;DHT22;27185;52.040;4.490;2022-11-20T07:36:02;0.40;99.90
41447;DHT22;27185;52.040;4.490;2022-11-20T07:38:47;0.50;99.90
41447;DHT22;27185;52.040;4.490;2022-11-20T07:41:33;0.60;99.90
41447;DHT22;27185;52.040;4.490;2022-11-20T07:44:18;0.60;99.90
41447;DHT22;27185;52.040;4.490;2022-11-20T07:47:04;0.70;99.90
41447;DHT22;27185;52.040;4.490;2022-11-20T07:49:50;0.70;99.90
41447;DHT22;27185;52.040;4.490;2022-11-20T07:52:35;0.80;99.90
41447;DHT22;27185;52.040;4.490;2022-11-20T07:55:21;0.90;99.90
41447;DHT22;27185;52.040;4.490;2022-11-20T07:58:06;1.00;99.90
41447;DHT22;27185;52.040;4.490;2022-11-20T08:00:52;1.10;99.90
41447;DHT22;27185;52.040;4.490;2022-11-20T08:03:37;1.10;99.90
41447;DHT22;27185;52.040;4.490;2022-11-20T08:06:23;1.20;99.90
41447;DHT22;27185;52.040;4.490;2022-11-20T08:09:10;1.30;99.90
41447;DHT22;27185;52.040;4.490;2022-11-20T08:11:55;1.30;99.90
41447;DHT22;27185;52.040;4.490;2022-11-20T08:14:59;1.50;99.90
41447;DHT22;27185;52.040;4.490;2022-11-20T08:17:45;1.50;99.90
41447;DHT22;27185;52.040;4.490;2022-11-20T08:20:30;1.60;99.90
41447;DHT22;27185;52.040;4.490;2022-11-20T08:23:16;1.70;99.90
41447;DHT22;27185;52.040;4.490;2022-11-20T08:26:02;1.70;99.90
41447;DHT22;27185;52.040;4.490;2022-11-20T08:28:47;1.80;99.90
41447;DHT22;27185;52.040;4.490;2022-11-20T08:31:33;1.80;99.90
41447;DHT22;27185;52.040;4.490;2022-11-20T08:34:18;1.90;99.90
41447;DHT22;27185;52.040;4.490;2022-11-20T08:37:04;1.90;99.90
41447;DHT22;27185;52.040;4.490;2022-11-20T08:39:49;2.00;99.90
41447;DHT22;27185;52.040;4.490;2022-11-20T08:42:35;2.10;99.90
41447;DHT22;27185;52.040;4.490;2022-11-20T08:45:20;2.10;99.90
41447;DHT22;27185;52.040;4.490;2022-11-20T08:48:06;2.20;99.90
41447;DHT22;27185;52.040;4.490;2022-11-20T08:50:51;2.20;99.90
41447;DHT22;27185;52.040;4.490;2022-11-20T08:53:38;2.30;99.90
41447;DHT22;27185;52.040;4.490;2022-11-20T08:56:24;2.30;99.90
41447;DHT22;27185;52.040;4.490;2022-11-20T08:59:09;2.40;99.90
41447;DHT22;27185;52.040;4.490;2022-11-20T09:01:55;2.40;99.90
41447;DHT22;27185;52.040;4.490;2022-11-20T09:04:40;2.50;99.90
41447;DHT22;27185;52.040;4.490;2022-11-20T09:07:26;2.50;99.90
41447;DHT22;27185;52.040;4.490;2022-11-20T09:10:12;2.60;99.90
41447;DHT22;27185;52.040;4.490;2022-11-20T09:12:57;2.60;99.90
41447;DHT22;27185;52.040;4.490;2022-11-20T09:15:43;2.70;99.90
41447;DHT22;27185;52.040;4.490;2022-11-20T09:18:29;2.80;99.90
41447;DHT22;27185;52.040;4.490;2022-11-20T09:21:16;2.80;99.90
41447;DHT22;27185;52.040;4.490;2022-11-20T09:24:02;2.90;99.90
41447;DHT22;27185;52.040;4.490;2022-11-20T09:26:48;3.00;99.90
41447;DHT22;27185;52.040;4.490;2022-11-20T09:29:33;3.10;99.90
41447;DHT22;27185;52.040;4.490;2022-11-20T09:32:19;3.20;99.90
41447;DHT22;27185;52.040;4.490;2022-11-20T09:35:04;3.30;99.90
41447;DHT22;27185;52.040;4.490;2022-11-20T09:37:50;3.30;99.90
41447;DHT22;27185;52.040;4.490;2022-11-20T09:40:39;3.40;99.90
41447;DHT22;27185;52.040;4.490;2022-11-20T09:43:58;3.50;99.90
41447;DHT22;27185;52.040;4.490;2022-11-20T09:56:11;3.90;99.90
41447;DHT22;27185;52.040;4.490;2022-11-20T09:59:03;4.00;99.90
41447;DHT22;27185;52.040;4.490;2022-11-20T10:01:50;4.00;99.90
41447;DHT22;27185;52.040;4.490;2022-11-20T10:04:42;4.10;99.90
41447;DHT22;27185;52.040;4.490;2022-11-20T10:07:41;4.20;99.90
41447;DHT22;27185;52.040;4.490;2022-11-20T10:22:55;4.50;99.90
41447;DHT22;27185;52.040;4.490;2022-11-20T10:25:53;4.50;99.90
41447;DHT22;27185;52.040;4.490;2022-11-20T10:31:46;4.60;99.90
41447;DHT22;27185;52.040;4.490;2022-11-20T10:37:41;4.60;99.90
41447;DHT22;27185;52.040;4.490;2022-11-20T10:40:44;4.60;99.90
41447;DHT22;27185;52.040;4.490;2022-11-20T10:43:34;4.60;99.90
41447;DHT22;27185;52.040;4.490;2022-11-20T10:46:22;4.60;99.90
41447;DHT22;27185;52.040;4.490;2022-11-20T10:49:16;4.60;99.90
41447;DHT22;27185;52.040;4.490;2022-11-20T10:52:12;4.60;99.90
41447;DHT22;27185;52.040;4.490;2022-11-20T10:58:37;4.60;99.90
41447;DHT22;27185;52.040;4.490;2022-11-20T11:01:24;4.60;99.90
41447;DHT22;27185;52.040;4.490;2022-11-20T11:07:35;4.70;99.90
41447;DHT22;27185;52.040;4.490;2022-11-20T11:10:51;4.80;99.90
41447;DHT22;27185;52.040;4.490;2022-11-20T11:13:37;4.90;99.90
41447;DHT22;27185;52.040;4.490;2022-11-20T11:16:25;4.90;99.90
41447;DHT22;27185;52.040;4.490;2022-11-20T11:19:14;5.00;99.90
41447;DHT22;27185;52.040;4.490;2022-11-20T11:22:00;5.00;99.90
41447;DHT22;27185;52.040;4.490;2022-11-20T11:24:53;5.10;99.90
41447;DHT22;27185;52.040;4.490;2022-11-20T11:27:46;5.10;99.90
41447;DHT22;27185;52.040;4.490;2022-11-20T11:30:43;5.20;99.90
41447;DHT22;27185;52.040;4.490;2022-11-20T11:33:31;5.30;99.90
41447;DHT22;27185;52.040;4.490;2022-11-20T11:36:22;5.30;99.90
41447;DHT22;27185;52.040;4.490;2022-11-20T11:39:18;5.40;99.90
41447;DHT22;27185;52.040;4.490;2022-11-20T11:42:05;5.50;99.90
41447;DHT22;27185;52.040;4.490;2022-11-20T11:44:51;5.50;99.90
41447;DHT22;27185;52.040;4.490;2022-11-20T11:47:56;5.50;99.90
41447;DHT22;27185;52.040;4.490;2022-11-20T11:50:49;5.60;99.90
41447;DHT22;27185;52.040;4.490;2022-11-20T11:53:37;5.60;99.90
41447;DHT22;27185;52.040;4.490;2022-11-20T11:56:25;5.70;99.90
41447;DHT22;27185;52.040;4.490;2022-11-20T11:59:23;5.70;99.90
41447;DHT22;27185;52.040;4.490;2022-11-20T12:05:42;5.70;99.90
41447;DHT22;27185;52.040;4.490;2022-11-20T12:11:51;5.80;99.90
41447;DHT22;27185;52.040;4.490;2022-11-20T12:14:40;5.90;99.90
41447;DHT22;27185;52.040;4.490;2022-11-20T12:17:27;5.90;99.90
41447;DHT22;27185;52.040;4.490;2022-11-20T12:20:13;5.90;99.90
41447;DHT22;27185;52.040;4.490;2022-11-20T12:23:14;5.90;99.90
41447;DHT22;27185;52.040;4.490;2022-11-20T12:26:05;5.90;99.90
41447;DHT22;27185;52.040;4.490;2022-11-20T12:29:06;6.00;99.90
41447;DHT22;27185;52.040;4.490;2022-11-20T12:45:06;6.20;99.90
41447;DHT22;27185;52.040;4.490;2022-11-20T13:00:35;6.20;99.90
41447;DHT22;27185;52.040;4.490;2022-11-20T13:03:33;6.20;99.90
41447;DHT22;27185;52.040;4.490;2022-11-20T13:06:22;6.10;99.90
41447;DHT22;27185;52.040;4.490;2022-11-20T13:09:12;6.20;99.90
41447;DHT22;27185;52.040;4.490;2022-11-20T13:15:17;6.20;99.90
41447;DHT22;27185;52.040;4.490;2022-11-20T13:18:11;6.20;99.90
41447;DHT22;27185;52.040;4.490;2022-11-20T13:20:58;6.20;99.90
41447;DHT22;27185;52.040;4.490;2022-11-20T13:23:43;6.10;99.90
41447;DHT22;27185;52.040;4.490;2022-11-20T13:26:29;6.10;99.90
41447;DHT22;27185;52.040;4.490;2022-11-20T13:29:18;6.10;99.90
41447;DHT22;27185;52.040;4.490;2022-11-20T13:32:15;6.10;99.90
41447;DHT22;27185;52.040;4.490;2022-11-20T13:35:03;6.10;99.90
41447;DHT22;27185;52.040;4.490;2022-11-20T13:37:59;6.10;99.90
41447;DHT22;27185;52.040;4.490;2022-11-20T13:41:00;6.10;99.90
41447;DHT22;27185;52.040;4.490;2022-11-20T13:44:33;6.10;99.90
41447;DHT22;27185;52.040;4.490;2022-11-20T13:47:28;6.10;99.90
41447;DHT22;27185;52.040;4.490;2022-11-20T13:50:14;6.00;99.90
41447;DHT22;27185;52.040;4.490;2022-11-20T14:02:14;6.00;99.90
41447;DHT22;27185;52.040;4.490;2022-11-20T14:05:01;6.00;99.90
41447;DHT22;27185;52.040;4.490;2022-11-20T14:07:47;5.90;99.90
41447;DHT22;27185;52.040;4.490;2022-11-20T14:10:33;5.90;99.90
41447;DHT22;27185;52.040;4.490;2022-11-20T14:13:20;5.90;99.90
41447;DHT22;27185;52.040;4.490;2022-11-20T14:16:05;5.90;99.90
41447;DHT22;27185;52.040;4.490;2022-11-20T14:18:52;5.90;99.90
41447;DHT22;27185;52.040;4.490;2022-11-20T14:21:38;5.90;99.90
41447;DHT22;27185;52.040;4.490;2022-11-20T14:24:24;5.90;99.90
41447;DHT22;27185;52.040;4.490;2022-11-20T14:27:19;5.90;99.90
41447;DHT22;27185;52.040;4.490;2022-11-20T14:30:06;5.90;99.90
41447;DHT22;27185;52.040;4.490;2022-11-20T14:32:55;5.90;99.90
41447;DHT22;27185;52.040;4.490;2022-11-20T14:35:49;5.90;99.90
41447;DHT22;27185;52.040;4.490;2022-11-20T14:38:36;5.90;99.90
41447;DHT22;27185;52.040;4.490;2022-11-20T14:41:23;5.90;99.90
41447;DHT22;27185;52.040;4.490;2022-11-20T14:44:10;5.90;99.90
41447;DHT22;27185;52.040;4.490;2022-11-20T14:46:56;5.90;99.90
41447;DHT22;27185;52.040;4.490;2022-11-20T14:49:42;5.90;99.90
41447;DHT22;27185;52.040;4.490;2022-11-20T14:52:28;5.90;99.90
41447;DHT22;27185;52.040;4.490;2022-11-20T14:55:34;5.90;99.90
41447;DHT22;27185;52.040;4.490;2022-11-20T14:58:23;5.90;99.90
41447;DHT22;27185;52.040;4.490;2022-11-20T15:01:12;6.00;99.90
41447;DHT22;27185;52.040;4.490;2022-11-20T15:04:10;6.00;99.90
41447;DHT22;27185;52.040;4.490;2022-11-20T15:06:57;6.00;99.90
41447;DHT22;27185;52.040;4.490;2022-11-20T15:09:43;5.90;99.90
41447;DHT22;27185;52.040;4.490;2022-11-20T15:12:31;6.00;99.90
41447;DHT22;27185;52.040;4.490;2022-11-20T15:15:21;6.00;99.90
41447;DHT22;27185;52.040;4.490;2022-11-20T15:18:17;6.00;99.90
41447;DHT22;27185;52.040;4.490;2022-11-20T15:21:12;6.00;99.90
41447;DHT22;27185;52.040;4.490;2022-11-20T15:23:57;6.00;99.90
41447;DHT22;27185;52.040;4.490;2022-11-20T15:26:44;6.00;99.90
41447;DHT22;27185;52.040;4.490;2022-11-20T15:29:30;6.00;99.90
41447;DHT22;27185;52.040;4.490;2022-11-20T15:32:16;6.00;99.90
41447;DHT22;27185;52.040;4.490;2022-11-20T15:35:01;6.10;99.90
41447;DHT22;27185;52.040;4.490;2022-11-20T15:37:47;6.00;99.90
41447;DHT22;27185;52.040;4.490;2022-11-20T15:40:32;6.10;99.90
41447;DHT22;27185;52.040;4.490;2022-11-20T15:43:18;6.10;99.90
41447;DHT22;27185;52.040;4.490;2022-11-20T15:46:13;6.10;99.90
41447;DHT22;27185;52.040;4.490;2022-11-20T15:49:00;6.10;99.90
41447;DHT22;27185;52.040;4.490;2022-11-20T15:51:48;6.10;99.90
41447;DHT22;27185;52.040;4.490;2022-11-20T15:54:34;6.10;99.90
41447;DHT22;27185;52.040;4.490;2022-11-20T15:57:19;6.10;99.90
41447;DHT22;27185;52.040;4.490;2022-11-20T16:00:05;6.00;99.90
41447;DHT22;27185;52.040;4.490;2022-11-20T16:02:51;6.00;99.90
41447;DHT22;27185;52.040;4.490;2022-11-20T16:05:37;6.00;99.90
41447;DHT22;27185;52.040;4.490;2022-11-20T16:08:22;5.90;99.90
41447;DHT22;27185;52.040;4.490;2022-11-20T16:11:12;5.90;99.90
41447;DHT22;27185;52.040;4.490;2022-11-20T16:13:57;5.90;99.90
41447;DHT22;27185;52.040;4.490;2022-11-20T16:17:02;5.90;99.90
41447;DHT22;27185;52.040;4.490;2022-11-20T16:19:48;5.90;99.90
41447;DHT22;27185;52.040;4.490;2022-11-20T16:22:33;5.90;99.90
41447;DHT22;27185;52.040;4.490;2022-11-20T16:25:19;5.90;99.90
41447;DHT22;27185;52.040;4.490;2022-11-20T16:28:05;5.90;99.90
41447;DHT22;27185;52.040;4.490;2022-11-20T16:30:51;5.90;99.90
41447;DHT22;27185;52.040;4.490;2022-11-20T16:33:36;5.90;99.90
41447;DHT22;27185;52.040;4.490;2022-11-20T16:36:24;5.90;99.90
41447;DHT22;27185;52.040;4.490;2022-11-20T16:39:10;5.90;99.90
41447;DHT22;27185;52.040;4.490;2022-11-20T16:41:56;5.90;99.90
41447;DHT22;27185;52.040;4.490;2022-11-20T16:44:41;5.90;99.90
41447;DHT22;27185;52.040;4.490;2022-11-20T16:47:34;5.90;99.90
41447;DHT22;27185;52.040;4.490;2022-11-20T16:50:20;5.90;99.90
41447;DHT22;27185;52.040;4.490;2022-11-20T16:53:05;6.00;99.90
41447;DHT22;27185;52.040;4.490;2022-11-20T16:55:51;6.00;99.90
41447;DHT22;27185;52.040;4.490;2022-11-20T16:58:37;6.00;99.90
41447;DHT22;27185;52.040;4.490;2022-11-20T17:01:23;6.00;99.90
41447;DHT22;27185;52.040;4.490;2022-11-20T17:04:09;6.10;99.90
41447;DHT22;27185;52.040;4.490;2022-11-20T17:06:54;6.10;99.90
41447;DHT22;27185;52.040;4.490;2022-11-20T17:09:40;6.10;99.90
41447;DHT22;27185;52.040;4.490;2022-11-20T17:12:26;6.10;99.90
41447;DHT22;27185;52.040;4.490;2022-11-20T17:15:11;6.10;99.90
41447;DHT22;27185;52.040;4.490;2022-11-20T17:17:57;6.10;99.90
41447;DHT22;27185;52.040;4.490;2022-11-20T17:20:50;6.10;99.90
41447;DHT22;27185;52.040;4.490;2022-11-20T17:23:39;6.20;99.90
41447;DHT22;27185;52.040;4.490;2022-11-20T17:26:24;6.30;99.90
41447;DHT22;27185;52.040;4.490;2022-11-20T17:29:13;6.20;99.90
41447;DHT22;27185;52.040;4.490;2022-11-20T17:31:59;6.30;99.90
41447;DHT22;27185;52.040;4.490;2022-11-20T17:34:44;6.30;99.90
41447;DHT22;27185;52.040;4.490;2022-11-20T17:37:30;6.30;99.90
41447;DHT22;27185;52.040;4.490;2022-11-20T17:40:15;6.30;99.90
41447;DHT22;27185;52.040;4.490;2022-11-20T17:43:01;6.30;99.90
41447;DHT22;27185;52.040;4.490;2022-11-20T17:45:47;6.30;99.90
41447;DHT22;27185;52.040;4.490;2022-11-20T17:48:33;6.30;99.90
41447;DHT22;27185;52.040;4.490;2022-11-20T17:51:24;6.40;99.90
41447;DHT22;27185;52.040;4.490;2022-11-20T17:54:10;6.40;99.90
41447;DHT22;27185;52.040;4.490;2022-11-20T17:56:56;6.40;99.90
41447;DHT22;27185;52.040;4.490;2022-11-20T17:59:59;6.40;99.90
41447;DHT22;27185;52.040;4.490;2022-11-20T18:02:45;6.40;99.90
41447;DHT22;27185;52.040;4.490;2022-11-20T18:05:31;6.40;99.90
41447;DHT22;27185;52.040;4.490;2022-11-20T18:08:16;6.40;99.90
41447;DHT22;27185;52.040;4.490;2022-11-20T18:13:57;6.40;99.90
41447;DHT22;27185;52.040;4.490;2022-11-20T18:17:20;6.40;99.90
41447;DHT22;27185;52.040;4.490;2022-11-20T18:20:06;6.40;99.90
41447;DHT22;27185;52.040;4.490;2022-11-20T18:22:53;6.40;99.90
41447;DHT22;27185;52.040;4.490;2022-11-20T18:25:39;6.40;99.90
41447;DHT22;27185;52.040;4.490;2022-11-20T18:28:24;6.40;99.90
41447;DHT22;27185;52.040;4.490;2022-11-20T18:31:11;6.40;99.90
41447;DHT22;27185;52.040;4.490;2022-11-20T18:33:57;6.40;99.90
41447;DHT22;27185;52.040;4.490;2022-11-20T18:36:43;6.30;99.90
41447;DHT22;27185;52.040;4.490;2022-11-20T18:39:29;6.30;99.90
41447;DHT22;27185;52.040;4.490;2022-11-20T18:42:15;6.30;99.90
41447;DHT22;27185;52.040;4.490;2022-11-20T18:45:20;6.30;99.90
41447;DHT22;27185;52.040;4.490;2022-11-20T18:48:05;6.20;99.90
41447;DHT22;27185;52.040;4.490;2022-11-20T18:50:51;6.20;99.90
41447;DHT22;27185;52.040;4.490;2022-11-20T18:53:36;6.10;99.90
41447;DHT22;27185;52.040;4.490;2022-11-20T18:56:22;6.10;99.90
41447;DHT22;27185;52.040;4.490;2022-11-20T18:59:09;6.10;99.90
41447;DHT22;27185;52.040;4.490;2022-11-20T19:01:54;6.10;99.90
41447;DHT22;27185;52.040;4.490;2022-11-20T19:04:40;6.00;99.90
41447;DHT22;27185;52.040;4.490;2022-11-20T19:07:26;6.00;99.90
41447;DHT22;27185;52.040;4.490;2022-11-20T19:10:11;6.00;99.90
41447;DHT22;27185;52.040;4.490;2022-11-20T19:12:57;6.00;99.90
41447;DHT22;27185;52.040;4.490;2022-11-20T19:15:43;6.00;99.90
41447;DHT22;27185;52.040;4.490;2022-11-20T19:18:29;6.00;99.90
41447;DHT22;27185;52.040;4.490;2022-11-20T19:21:18;6.00;99.90
41447;DHT22;27185;52.040;4.490;2022-11-20T19:24:04;6.00;99.90
41447;DHT22;27185;52.040;4.490;2022-11-20T19:26:49;6.00;99.90